Time;durP1;ratioP1;P1;durP2;ratioP2;P2;SDS_P1;SDS_P2;PMS_P1;PMS_P2;Temp;Humidity;BMP_temperature;BMP_pressure;BME280_temperature;BME280_humidity;BME280_pressure;Samples;Min_cycle;Max_cycle;Signal;HPM_P1;HPM_P2
2023/03/31 00:01:32;;;;;;;5.07;1.40;;;;;;;11.43;100.00;99621.09;4938688;28;20054;-92
2023/03/31 00:04:07;;;;;;;5.28;1.35;;;;;;;11.46;100.00;99630.66;4963043;28;20058;-93
2023/03/31 00:06:44;;;;;;;8.98;1.40;;;;;;;11.07;100.00;99580.97;4946218;28;20055;-89
2023/03/31 00:09:17;;;;;;;5.95;1.60;;;;;;;11.31;100.00;99627.16;4952850;28;20055;-88
2023/03/31 00:11:51;;;;;;;7.53;1.50;;;;;;;11.31;100.00;99637.75;4954123;28;20066;-90
2023/03/31 00:14:21;;;;;;;5.95;1.23;;;;;;;11.05;100.00;99596.94;4953019;29;20082;-93
2023/03/31 00:16:54;;;;;;;7.43;1.90;;;;;;;11.32;100.00;99630.66;4949202;28;20063;-93
2023/03/31 00:19:24;;;;;;;11.65;1.77;;;;;;;11.02;100.00;99583.06;4928063;28;20051;-93
2023/03/31 00:22:04;;;;;;;8.45;1.73;;;;;;;11.11;100.00;99577.19;4953849;28;20039;-92
2023/03/31 00:24:32;;;;;;;8.60;1.77;;;;;;;10.80;100.00;99507.56;4948817;28;20050;-94
2023/03/31 00:27:01;;;;;;;5.13;1.25;;;;;;;11.12;100.00;99558.53;4947990;29;20071;-94
2023/03/31 00:29:35;;;;;;;10.38;2.72;;;;;;;11.02;100.00;99575.13;4961140;28;20047;-92
2023/03/31 00:32:03;;;;;;;9.05;1.85;;;;;;;10.92;100.00;99619.00;4952794;29;20055;-91
2023/03/31 00:34:37;;;;;;;8.88;1.70;;;;;;;10.60;100.00;99600.59;4939125;28;20110;-93
2023/03/31 00:37:08;;;;;;;9.02;2.40;;;;;;;10.44;100.00;99584.78;4952791;28;20054;-91
2023/03/31 00:39:52;;;;;;;10.10;2.45;;;;;;;10.39;100.00;99596.59;4955421;28;20048;-90
2023/03/31 00:42:38;;;;;;;9.27;2.03;;;;;;;10.32;100.00;99582.00;4951868;28;20047;-92
2023/03/31 00:45:26;;;;;;;7.38;2.15;;;;;;;9.93;100.00;99519.00;4946470;29;20090;-92
2023/03/31 00:48:04;;;;;;;11.02;2.35;;;;;;;10.10;100.00;99567.34;4942134;28;20047;-93
2023/03/31 00:50:43;;;;;;;6.47;1.83;;;;;;;9.97;100.00;99561.06;4945034;28;20046;-93
2023/03/31 00:53:25;;;;;;;6.68;1.90;;;;;;;10.05;100.00;99566.78;4958403;28;20111;-92
2023/03/31 00:55:56;;;;;;;8.77;1.77;;;;;;;9.71;100.00;99482.38;4939599;28;20144;-89
2023/03/31 00:58:27;;;;;;;8.73;2.25;;;;;;;9.95;100.00;99517.97;4942696;29;20126;-88
2023/03/31 01:01:02;;;;;;;5.20;1.63;;;;;;;10.15;100.00;99544.13;4930634;28;20122;-87
2023/03/31 01:03:33;;;;;;;6.93;2.03;;;;;;;10.09;100.00;99540.97;4950018;28;20059;-91
2023/03/31 01:06:04;;;;;;;10.88;1.90;;;;;;;9.83;100.00;99503.69;4954525;28;20070;-91
2023/03/31 01:08:35;;;;;;;9.23;2.50;;;;;;;9.96;100.00;99535.53;4945899;28;20039;-90
2023/03/31 01:11:11;;;;;;;8.73;2.20;;;;;;;9.87;100.00;99529.94;4942104;29;20067;-89
2023/03/31 01:13:40;;;;;;;11.30;2.45;;;;;;;9.79;100.00;99523.28;4949724;28;20055;-89
2023/03/31 01:16:14;;;;;;;9.07;2.20;;;;;;;9.38;100.00;99456.09;4966934;28;20043;-89
2023/03/31 01:18:48;;;;;;;8.20;2.28;;;;;;;9.32;100.00;99456.44;4956452;28;20054;-89
2023/03/31 01:22:04;;;;;;;5.88;2.22;;;;;;;9.70;100.00;99521.19;4973994;28;20033;-87
2023/03/31 01:25:00;;;;;;;7.03;2.30;;;;;;;9.67;100.00;99520.50;4974493;28;20046;-86
2023/03/31 01:27:42;;;;;;;11.15;3.42;;;;;;;9.69;100.00;99514.19;4955656;29;20116;-86
2023/03/31 01:30:46;;;;;;;10.65;2.88;;;;;;;9.71;100.00;99508.84;4965994;28;20034;-85
2023/03/31 01:33:34;;;;;;;8.38;2.40;;;;;;;9.72;100.00;99495.53;4982805;28;20052;-85
2023/03/31 01:36:41;;;;;;;9.07;3.10;;;;;;;9.54;100.00;99458.72;4977137;28;20039;-85
2023/03/31 01:39:11;;;;;;;7.20;2.20;;;;;;;9.79;100.00;99488.06;4959647;29;20051;-85
2023/03/31 01:41:44;;;;;;;8.82;2.85;;;;;;;9.85;100.00;99482.44;4950912;28;20080;-86
2023/03/31 01:44:37;;;;;;;8.50;2.58;;;;;;;9.87;100.00;99475.28;4977402;28;20057;-87
2023/03/31 01:47:21;;;;;;;12.25;2.70;;;;;;;9.85;100.00;99471.88;4989573;28;20038;-88
2023/03/31 01:50:09;;;;;;;7.75;2.55;;;;;;;9.87;100.00;99462.06;4976964;28;20069;-89
2023/03/31 01:52:46;;;;;;;9.80;2.38;;;;;;;9.91;100.00;99457.44;4974935;28;20047;-90
2023/03/31 01:56:10;;;;;;;10.70;2.67;;;;;;;9.93;100.00;99437.88;4979643;28;20034;-89
2023/03/31 01:58:54;;;;;;;6.25;2.22;;;;;;;10.00;100.00;99433.94;4949847;28;20061;-89
2023/03/31 02:01:37;;;;;;;7.97;2.55;;;;;;;10.03;100.00;99433.75;4974911;28;20054;-90
2023/03/31 02:04:19;;;;;;;7.60;2.33;;;;;;;9.97;100.00;99418.25;4978576;28;20382;-88
2023/03/31 02:07:04;;;;;;;10.30;2.33;;;;;;;10.01;100.00;99433.00;4990410;28;20038;-85
2023/03/31 02:09:41;;;;;;;7.15;2.10;;;;;;;9.62;100.00;99358.69;4981052;28;20125;-86
2023/03/31 02:12:11;;;;;;;6.53;2.00;;;;;;;9.99;100.00;99410.22;4984855;28;20051;-83
2023/03/31 02:14:42;;;;;;;10.23;2.42;;;;;;;9.75;100.00;99367.59;4976832;28;20046;-87
2023/03/31 02:17:17;;;;;;;8.65;2.42;;;;;;;10.01;100.00;99397.75;4978828;28;20035;-84
2023/03/31 02:19:52;;;;;;;7.97;2.88;;;;;;;9.94;100.00;99378.75;4979673;28;20035;-86
2023/03/31 02:22:22;;;;;;;8.23;2.33;;;;;;;10.03;100.00;99396.72;4979550;28;20077;-87
2023/03/31 02:24:51;;;;;;;8.80;2.63;;;;;;;10.00;100.00;99383.69;4990398;28;20110;-89
2023/03/31 02:27:30;;;;;;;8.80;2.28;;;;;;;9.77;100.00;99339.25;4974693;28;20050;-89
2023/03/31 02:30:02;;;;;;;7.80;2.05;;;;;;;9.60;100.00;99305.91;4973508;28;20038;-87
2023/03/31 02:32:35;;;;;;;9.85;2.47;;;;;;;9.89;100.00;99356.19;4972846;28;20053;-88
2023/03/31 02:35:15;;;;;;;13.20;2.70;;;;;;;9.81;100.00;99336.34;4993917;28;20038;-86
2023/03/31 02:37:44;;;;;;;9.02;2.28;;;;;;;9.58;100.00;99305.16;4987796;28;20047;-88
2023/03/31 02:40:21;;;;;;;9.02;1.88;;;;;;;9.73;100.00;99328.03;4978257;28;20038;-89
2023/03/31 02:42:51;;;;;;;9.70;2.40;;;;;;;9.48;100.00;99301.34;4968522;28;20046;-86
2023/03/31 02:45:43;;;;;;;8.55;2.20;;;;;;;9.89;100.00;99359.69;4967812;28;20047;-86
2023/03/31 02:48:15;;;;;;;7.13;2.75;;;;;;;9.74;100.00;99328.88;4966754;28;20066;-88
2023/03/31 02:51:07;;;;;;;8.68;2.17;;;;;;;9.95;100.00;99356.66;4973228;28;20114;-86
2023/03/31 02:53:37;;;;;;;8.88;2.67;;;;;;;9.98;100.00;99345.88;4981252;28;20043;-83
2023/03/31 02:56:25;;;;;;;8.25;2.20;;;;;;;9.98;100.00;99342.41;4972560;28;20476;-85
2023/03/31 02:59:16;;;;;;;8.55;2.30;;;;;;;9.90;100.00;99331.44;4973859;28;20043;-88
2023/03/31 03:02:09;;;;;;;9.93;2.60;;;;;;;9.88;100.00;99328.91;4972295;28;20150;-86
2023/03/31 03:04:57;;;;;;;6.57;2.33;;;;;;;9.97;100.00;99345.97;4976133;28;20061;-85
2023/03/31 03:07:37;;;;;;;7.90;2.10;;;;;;;9.95;100.00;99324.91;4986662;28;20394;-84
2023/03/31 03:10:45;;;;;;;10.00;2.77;;;;;;;9.81;100.00;99291.38;4977798;28;20039;-85
2023/03/31 03:13:29;;;;;;;6.97;2.10;;;;;;;10.01;100.00;99297.25;4988379;28;20115;-85
2023/03/31 03:16:12;;;;;;;10.00;2.28;;;;;;;9.75;100.00;99238.91;4974530;28;20055;-86
2023/03/31 03:18:39;;;;;;;11.95;2.50;;;;;;;9.81;100.00;99235.03;4978926;28;20082;-88
2023/03/31 03:21:11;;;;;;;6.18;2.35;;;;;;;10.00;100.00;99256.72;4977509;28;20061;-87
2023/03/31 03:23:38;;;;;;;10.45;2.20;;;;;;;9.98;100.00;99240.09;4972338;28;20067;-86
2023/03/31 03:26:05;;;;;;;9.68;2.30;;;;;;;10.02;100.00;99227.53;4966423;28;20094;-87
2023/03/31 03:28:35;;;;;;;13.02;2.30;;;;;;;9.92;100.00;99199.97;4997397;28;20038;-88
2023/03/31 03:31:02;;;;;;;9.05;1.90;;;;;;;10.03;100.00;99214.22;4969572;28;20102;-87
2023/03/31 03:33:29;;;;;;;7.82;1.75;;;;;;;10.04;100.00;99213.28;4976401;28;20039;-86
2023/03/31 03:35:57;;;;;;;7.15;2.10;;;;;;;9.88;100.00;99193.19;4987611;28;20201;-85
2023/03/31 03:38:25;;;;;;;7.60;1.92;;;;;;;9.55;100.00;99159.16;4963653;28;20042;-87
2023/03/31 03:40:58;;;;;;;9.23;1.77;;;;;;;9.55;100.00;99162.63;4978233;28;20157;-87
2023/03/31 03:43:25;;;;;;;7.68;2.10;;;;;;;9.86;100.00;99219.72;4983451;28;20058;-89
2023/03/31 03:45:52;;;;;;;9.05;2.42;;;;;;;9.79;100.00;99210.47;4964284;28;20055;-88
2023/03/31 03:48:20;;;;;;;10.07;2.17;;;;;;;9.87;100.00;99208.22;4982336;28;20566;-89
2023/03/31 03:50:47;;;;;;;12.98;1.80;;;;;;;9.90;100.00;99202.72;4960307;28;20038;-87
2023/03/31 03:53:15;;;;;;;12.52;2.30;;;;;;;9.99;100.00;99194.19;4977401;28;20132;-88
2023/03/31 03:55:58;;;;;;;8.80;2.28;;;;;;;9.98;100.00;99181.91;4962548;28;20553;-89
2023/03/31 03:58:41;;;;;;;11.40;2.15;;;;;;;9.60;100.00;99105.03;4961394;28;20126;-86
2023/03/31 04:01:08;;;;;;;7.45;1.90;;;;;;;9.68;100.00;99110.69;4963462;28;20046;-88
2023/03/31 04:03:35;;;;;;;7.15;1.88;;;;;;;9.59;100.00;99095.44;4963948;28;20047;-88
2023/03/31 04:06:04;;;;;;;15.18;2.50;;;;;;;9.50;100.00;99070.44;4972224;28;20053;-87
2023/03/31 04:08:32;;;;;;;10.60;2.13;;;;;;;10.01;100.00;99147.34;4958249;28;20058;-88
2023/03/31 04:10:59;;;;;;;11.10;2.80;;;;;;;10.08;100.00;99143.34;4975083;28;20046;-86
2023/03/31 04:13:26;;;;;;;10.25;1.83;;;;;;;10.05;100.00;99140.06;4975620;28;20048;-87
2023/03/31 04:16:02;;;;;;;6.30;1.80;;;;;;;9.77;100.00;99103.97;4981514;28;20039;-88
2023/03/31 04:18:41;;;;;;;11.18;2.63;;;;;;;9.90;100.00;99144.56;4968473;28;20035;-87
2023/03/31 04:21:21;;;;;;;8.70;2.10;;;;;;;9.68;100.00;99113.34;4951034;28;20042;-88
2023/03/31 04:23:57;;;;;;;9.30;2.42;;;;;;;9.36;100.00;99033.47;4964557;28;20040;-89
2023/03/31 04:26:41;;;;;;;9.35;2.30;;;;;;;9.95;100.00;99144.25;4980837;28;20090;-90
2023/03/31 04:29:22;;;;;;;9.70;2.40;;;;;;;9.25;100.00;99049.16;4966738;28;20039;-90
2023/03/31 04:31:57;;;;;;;8.50;2.10;;;;;;;9.39;100.00;99054.41;4981568;28;20046;-90
2023/03/31 04:34:38;;;;;;;10.13;2.10;;;;;;;9.91;100.00;99132.19;4982704;28;20053;-90
2023/03/31 04:37:11;;;;;;;7.90;1.77;;;;;;;9.42;100.00;99051.59;4968652;28;20046;-90
2023/03/31 04:39:40;;;;;;;7.72;2.20;;;;;;;9.94;100.00;99140.75;4960139;28;20066;-88
2023/03/31 04:42:09;;;;;;;14.63;2.30;;;;;;;9.85;100.00;99117.56;4960063;28;20125;-89
2023/03/31 04:44:52;;;;;;;;;;;;;;;9.94;100.00;99119.59;4982705;28;20050;-88
2023/03/31 04:47:42;;;;;;;10.25;2.00;;;;;;;9.92;100.00;99125.91;4969384;28;19994;-89
2023/03/31 04:50:25;;;;;;;9.35;2.50;;;;;;;9.60;100.00;99057.47;4970273;28;20053;-91
2023/03/31 04:53:12;;;;;;;12.90;2.50;;;;;;;9.77;100.00;99064.31;4971747;28;20051;-90
2023/03/31 04:55:45;;;;;;;6.75;2.08;;;;;;;9.98;100.00;99076.13;4960488;28;20043;-92
2023/03/31 04:58:24;;;;;;;10.40;2.45;;;;;;;10.00;100.00;99073.41;4978993;28;20046;-90
2023/03/31 05:00:55;;;;;;;10.90;2.50;;;;;;;9.89;100.00;99044.19;4969086;28;20074;-90
2023/03/31 05:03:25;;;;;;;7.60;1.90;;;;;;;10.01;100.00;99070.66;4963454;28;20051;-89
2023/03/31 05:05:55;;;;;;;10.05;2.63;;;;;;;10.00;100.00;99071.59;4963780;28;20102;-89
2023/03/31 05:08:22;;;;;;;11.80;2.38;;;;;;;9.34;100.00;98963.19;4966675;28;20042;-89
2023/03/31 05:11:19;;;;;;;10.05;2.20;;;;;;;9.87;100.00;99067.22;4987501;28;20058;-90
2023/03/31 05:13:48;;;;;;;8.48;2.20;;;;;;;9.73;100.00;99062.84;4958872;28;20054;-90
2023/03/31 05:16:30;;;;;;;8.50;2.33;;;;;;;9.77;100.00;99072.22;4953304;28;20058;-90
2023/03/31 05:19:08;;;;;;;8.10;2.38;;;;;;;9.94;100.00;99098.44;4966716;28;20168;-90
2023/03/31 05:21:39;;;;;;;8.37;2.87;;;;;;;9.94;100.00;99074.63;5000902;28;20066;-87
2023/03/31 05:24:13;;;;;;;8.35;2.50;;;;;;;9.99;100.00;99077.84;4981116;28;20054;-90
2023/03/31 05:26:40;;;;;;;8.57;2.53;;;;;;;9.90;100.00;99073.16;4996487;28;20035;-87
2023/03/31 05:29:09;;;;;;;11.13;2.55;;;;;;;9.82;100.00;99054.28;4979920;28;20055;-90
2023/03/31 05:31:36;;;;;;;10.80;2.80;;;;;;;9.91;100.00;99068.72;4984641;28;20043;-89
2023/03/31 05:34:09;;;;;;;10.52;2.00;;;;;;;9.70;100.00;99044.53;4999003;28;20042;-89
2023/03/31 05:36:42;;;;;;;11.80;2.28;;;;;;;9.81;100.00;99071.09;4954836;28;20090;-90
2023/03/31 05:39:14;;;;;;;10.32;2.53;;;;;;;9.65;100.00;99047.44;4976303;28;20054;-88
2023/03/31 05:41:46;;;;;;;11.98;2.53;;;;;;;9.79;100.00;99080.91;4966031;28;20049;-88
2023/03/31 05:44:16;;;;;;;12.25;2.40;;;;;;;9.50;100.00;99022.84;4971706;28;20464;-88
2023/03/31 05:46:55;;;;;;;11.23;2.97;;;;;;;9.84;100.00;99068.25;4963777;28;20050;-89
2023/03/31 05:49:26;;;;;;;7.35;2.00;;;;;;;9.56;100.00;99000.50;4959367;28;20039;-90
2023/03/31 05:52:01;;;;;;;10.77;2.13;;;;;;;9.40;100.00;98976.00;4932217;28;20047;-89
2023/03/31 05:54:40;;;;;;;11.35;2.70;;;;;;;9.80;100.00;99045.59;4964063;28;20043;-88
2023/03/31 05:57:10;;;;;;;9.23;2.55;;;;;;;9.81;100.00;99037.56;4966501;28;20099;-88
2023/03/31 05:59:39;;;;;;;8.88;2.60;;;;;;;9.80;100.00;99029.75;4947820;28;20440;-86
2023/03/31 06:02:15;;;;;;;10.75;2.70;;;;;;;9.61;100.00;98997.53;4947204;28;20047;-88
2023/03/31 06:04:42;;;;;;;13.52;3.30;;;;;;;9.65;100.00;98985.81;4949082;28;20095;-87
2023/03/31 06:07:12;;;;;;;12.05;2.45;;;;;;;9.54;100.00;98965.38;4965287;28;20178;-88
2023/03/31 06:09:44;;;;;;;11.50;2.30;;;;;;;9.75;100.00;98994.84;4961099;28;20039;-86
2023/03/31 06:12:11;;;;;;;10.20;3.13;;;;;;;9.78;100.00;98994.63;4940816;28;20053;-85
2023/03/31 06:14:40;;;;;;;10.68;3.60;;;;;;;9.10;100.00;98862.63;4966152;28;20043;-85
2023/03/31 06:17:08;;;;;;;11.38;3.10;;;;;;;9.33;100.00;98891.00;4947161;28;20111;-87
2023/03/31 06:19:39;;;;;;;12.20;2.83;;;;;;;9.60;100.00;98927.97;4942405;29;20076;-88
2023/03/31 06:22:06;;;;;;;11.57;2.97;;;;;;;9.28;100.00;98871.16;4959475;28;20721;-88
2023/03/31 06:24:36;;;;;;;13.65;3.28;;;;;;;9.33;100.00;98877.78;4957486;28;20083;-87
2023/03/31 06:27:05;;;;;;;11.43;2.70;;;;;;;9.38;100.00;98865.13;4942007;28;20098;-87
2023/03/31 06:29:42;;;;;;;6.95;2.42;;;;;;;9.64;100.00;98897.75;4942935;28;20047;-87
2023/03/31 06:32:10;;;;;;;10.93;2.58;;;;;;;9.71;100.00;98914.06;4945285;28;20477;-87
2023/03/31 06:34:37;;;;;;;11.55;2.50;;;;;;;9.74;100.00;98920.00;4928710;28;20075;-86
2023/03/31 06:37:04;;;;;;;14.43;3.22;;;;;;;9.68;100.00;98899.25;4943828;28;20058;-88
2023/03/31 06:39:32;;;;;;;11.27;3.47;;;;;;;9.75;100.00;98895.25;4961244;28;20465;-86
2023/03/31 06:41:59;;;;;;;11.48;3.20;;;;;;;9.39;100.00;98821.06;4930406;28;20043;-87
2023/03/31 06:44:27;;;;;;;11.32;3.50;;;;;;;9.54;100.00;98832.41;4958041;28;20063;-88
2023/03/31 06:46:55;;;;;;;9.70;3.17;;;;;;;9.79;100.00;98880.00;4966966;28;20043;-87
2023/03/31 06:49:25;;;;;;;12.68;3.75;;;;;;;9.77;100.00;98866.03;4974319;28;20047;-89
2023/03/31 06:51:55;;;;;;;14.75;4.47;;;;;;;9.58;100.00;98832.09;4970718;28;20295;-87
2023/03/31 06:54:23;;;;;;;12.40;4.30;;;;;;;9.85;100.00;98864.59;4974807;28;20059;-88
2023/03/31 06:56:52;;;;;;;11.23;3.70;;;;;;;9.70;100.00;98820.69;4966919;28;20081;-86
2023/03/31 06:59:19;;;;;;;12.00;4.20;;;;;;;9.91;100.00;98849.25;4963438;28;20107;-85
2023/03/31 07:01:49;;;;;;;10.45;3.97;;;;;;;9.94;100.00;98839.28;4968771;28;20092;-88
2023/03/31 07:04:18;;;;;;;10.82;4.20;;;;;;;9.49;100.00;98766.66;4962009;28;20055;-89
2023/03/31 07:06:46;;;;;;;15.15;4.88;;;;;;;9.76;100.00;98807.03;4977225;28;20043;-87
2023/03/31 07:09:13;;;;;;;11.02;4.45;;;;;;;9.39;100.00;98726.81;4953125;28;20051;-86
2023/03/31 07:11:41;;;;;;;11.23;4.13;;;;;;;9.92;100.00;98814.75;4957643;28;20490;-87
2023/03/31 07:14:09;;;;;;;8.30;4.30;;;;;;;9.98;100.00;98811.69;4969052;28;20051;-88
2023/03/31 07:16:36;;;;;;;15.32;4.53;;;;;;;9.85;100.00;98789.72;4983294;28;20546;-88
2023/03/31 07:19:24;;;;;;;11.60;4.72;;;;;;;10.05;100.00;98814.78;4989391;28;20043;-88
2023/03/31 07:22:09;;;;;;;10.93;4.80;;;;;;;9.65;100.00;98742.66;4973214;28;20098;-87
2023/03/31 07:24:36;;;;;;;11.65;4.68;;;;;;;9.43;100.00;98711.59;4973129;28;20054;-86
2023/03/31 07:27:10;;;;;;;17.02;5.20;;;;;;;9.68;100.00;98747.75;4967040;28;20630;-86
2023/03/31 07:29:38;;;;;;;13.95;5.78;;;;;;;10.00;100.00;98803.66;4966224;28;20051;-89
2023/03/31 07:32:09;;;;;;;13.63;5.57;;;;;;;9.89;100.00;98777.97;4981431;28;21346;-86
2023/03/31 07:34:37;;;;;;;8.93;5.15;;;;;;;9.97;100.00;98769.50;4979666;28;20054;-85
2023/03/31 07:37:05;;;;;;;10.77;4.80;;;;;;;10.02;100.00;98773.50;4959857;28;20078;-86
2023/03/31 07:39:35;;;;;;;14.45;5.95;;;;;;;9.87;100.00;98818.69;4960537;28;20070;-85
2023/03/31 07:42:03;;;;;;;10.60;5.20;;;;;;;9.94;100.00;98835.81;4973823;28;20105;-87
2023/03/31 07:44:32;;;;;;;12.38;6.18;;;;;;;9.92;100.00;98822.69;4971204;28;20053;-84
2023/03/31 07:47:03;;;;;;;12.43;5.13;;;;;;;10.02;100.00;98821.13;4976976;28;20551;-88
2023/03/31 07:49:33;;;;;;;13.80;5.30;;;;;;;10.07;100.00;98820.81;4992475;28;20034;-83
2023/03/31 07:52:01;;;;;;;8.88;4.43;;;;;;;9.88;100.00;98794.78;4972709;28;20077;-86
2023/03/31 07:54:29;;;;;;;10.18;4.38;;;;;;;9.94;100.00;98814.66;4968408;28;20039;-86
2023/03/31 07:57:00;;;;;;;10.05;4.47;;;;;;;9.95;100.00;98817.19;4987420;28;20106;-87
2023/03/31 07:59:29;;;;;;;6.68;4.00;;;;;;;9.95;100.00;98817.19;4980467;28;20062;-87
2023/03/31 08:02:00;;;;;;;9.88;3.97;;;;;;;9.78;100.00;98788.44;4953419;28;20053;-86
2023/03/31 08:04:27;;;;;;;10.73;4.10;;;;;;;9.85;100.00;98773.84;4956266;28;20038;-87
2023/03/31 08:06:53;;;;;;;8.30;4.35;;;;;;;10.32;100.00;98814.66;4977921;28;20035;-88
2023/03/31 08:09:22;;;;;;;9.75;4.95;;;;;;;10.21;100.00;98770.44;4960643;28;20053;-85
2023/03/31 08:11:49;;;;;;;12.80;5.60;;;;;;;10.60;100.00;98826.75;4991896;28;20042;-83
2023/03/31 08:14:16;;;;;;;10.57;5.60;;;;;;;10.58;100.00;98816.28;4961046;28;20043;-86
2023/03/31 08:16:59;;;;;;;10.73;6.10;;;;;;;10.38;100.00;98756.88;4970666;28;20043;-88
2023/03/31 08:19:28;;;;;;;10.98;5.13;;;;;;;10.58;100.00;98789.81;4968240;28;20129;-87
2023/03/31 08:21:55;;;;;;;15.10;5.97;;;;;;;10.63;100.00;98786.84;4968724;28;20109;-84
2023/03/31 08:24:23;;;;;;;16.33;5.80;;;;;;;10.79;100.00;98805.94;4975414;28;20144;-86
2023/03/31 08:26:50;;;;;;;14.27;5.63;;;;;;;10.92;100.00;98835.00;4978704;28;20035;-85
2023/03/31 08:29:19;;;;;;;12.63;5.63;;;;;;;10.95;100.00;98825.06;4971187;28;20042;-85
2023/03/31 08:31:56;;;;;;;10.60;6.10;;;;;;;10.90;100.00;98790.94;4994353;28;20038;-86
2023/03/31 08:34:23;;;;;;;13.60;6.18;;;;;;;11.32;100.00;98833.78;4991324;28;20125;-86
2023/03/31 08:36:54;;;;;;;11.77;5.72;;;;;;;11.31;100.00;98792.34;4963989;28;20063;-86
2023/03/31 08:39:31;;;;;;;12.20;6.15;;;;;;;11.81;100.00;98795.59;4978116;28;20486;-86
2023/03/31 08:42:04;;;;;;;10.75;5.75;;;;;;;12.13;100.00;98804.53;4962240;28;20047;-88
2023/03/31 08:44:41;;;;;;;11.30;5.43;;;;;;;12.22;100.00;98814.44;4963680;28;20042;-85
2023/03/31 08:47:16;;;;;;;8.35;4.78;;;;;;;12.22;100.00;98803.00;4957905;28;20166;-88
2023/03/31 08:49:55;;;;;;;7.60;4.60;;;;;;;12.17;100.00;98798.03;4978352;28;20042;-86
2023/03/31 08:52:40;;;;;;;9.48;4.82;;;;;;;12.05;100.00;98785.75;4965233;28;20055;-85
2023/03/31 08:55:16;;;;;;;10.88;4.65;;;;;;;12.04;100.00;98807.09;4947167;28;20095;-84
2023/03/31 08:57:50;;;;;;;8.30;4.82;;;;;;;11.87;100.00;98811.88;4968599;28;20043;-86
2023/03/31 09:00:18;;;;;;;12.35;5.43;;;;;;;11.77;100.00;98805.63;4981289;28;20039;-86
2023/03/31 09:03:03;;;;;;;9.30;4.53;;;;;;;11.73;100.00;98813.88;4971477;28;20058;-86
2023/03/31 09:05:44;;;;;;;9.63;4.40;;;;;;;11.50;100.00;98782.00;4954276;28;20047;-85
2023/03/31 09:08:32;;;;;;;8.82;4.35;;;;;;;11.45;100.00;98799.25;4979151;28;20045;-87
2023/03/31 09:11:11;;;;;;;7.97;4.50;;;;;;;11.31;100.00;98772.94;4956382;28;20043;-85
2023/03/31 09:14:24;;;;;;;8.63;4.43;;;;;;;11.66;100.00;98794.94;4958770;28;20527;-86
2023/03/31 09:17:07;;;;;;;9.95;4.07;;;;;;;11.76;100.00;98776.56;4964821;28;20081;-85
2023/03/31 09:19:41;;;;;;;9.38;3.95;;;;;;;11.47;100.00;98708.03;4977886;28;20042;-85
2023/03/31 09:22:24;;;;;;;6.43;3.80;;;;;;;11.80;100.00;98743.53;4971231;28;20054;-84
2023/03/31 09:25:12;;;;;;;7.65;4.30;;;;;;;12.11;100.00;98753.44;4961665;28;20039;-90
2023/03/31 09:27:43;;;;;;;9.27;2.97;;;;;;;12.30;100.00;98771.38;4967025;28;20060;-85
2023/03/31 09:30:26;;;;;;;8.55;3.05;;;;;;;11.99;100.00;98759.69;4962082;28;20119;-86
2023/03/31 09:33:21;;;;;;;6.20;3.30;;;;;;;11.88;100.00;98780.91;4981938;28;20085;-86
2023/03/31 09:35:48;;;;;;;6.63;3.08;;;;;;;11.47;100.00;98725.75;4971825;28;20047;-87
2023/03/31 09:38:17;;;;;;;7.40;3.10;;;;;;;11.29;100.00;98695.38;4979932;28;20054;-89
2023/03/31 09:40:52;;;;;;;8.27;2.60;;;;;;;11.79;100.00;98779.81;4976204;28;20204;-89
2023/03/31 09:43:29;;;;;;;6.65;2.83;;;;;;;11.53;100.00;98731.41;4974787;28;20039;-87
2023/03/31 09:46:01;;;;;;;5.95;3.20;;;;;;;11.64;100.00;98727.94;4973029;28;20070;-85
2023/03/31 09:48:37;;;;;;;8.93;2.97;;;;;;;11.90;100.00;98742.69;4950855;28;20059;-86
2023/03/31 09:51:19;;;;;;;4.93;2.35;;;;;;;12.21;100.00;98742.91;4966685;28;20067;-87
2023/03/31 09:54:06;;;;;;;8.50;2.60;;;;;;;12.74;100.00;98743.06;4955311;28;20035;-88
2023/03/31 09:56:41;;;;;;;9.43;3.00;;;;;;;13.18;100.00;98740.25;4951497;28;20042;-87
2023/03/31 09:59:21;;;;;;;6.45;2.35;;;;;;;13.42;100.00;98729.34;4961347;28;20047;-88
2023/03/31 10:01:57;;;;;;;10.18;2.70;;;;;;;13.26;100.00;98728.94;4956368;28;20044;-86
2023/03/31 10:04:45;;;;;;;8.80;2.53;;;;;;;13.05;100.00;98728.06;4954071;28;20054;-86
2023/03/31 10:07:12;;;;;;;8.27;2.63;;;;;;;13.00;100.00;98710.69;4959434;28;20118;-85
2023/03/31 10:09:44;;;;;;;9.90;2.60;;;;;;;13.21;100.00;98717.88;4945970;29;20093;-87
2023/03/31 10:12:28;;;;;;;7.05;2.47;;;;;;;13.22;100.00;98696.47;4967658;28;20047;-86
2023/03/31 10:15:20;;;;;;;11.45;3.10;;;;;;;12.81;100.00;98636.16;4953198;28;20066;-88
2023/03/31 10:17:47;;;;;;;6.25;2.33;;;;;;;12.71;100.00;98618.47;4951118;29;20050;-88
2023/03/31 10:20:57;;;;;;;10.07;2.90;;;;;;;13.26;100.00;98703.22;4968534;28;20047;-88
2023/03/31 10:23:31;;;;;;;12.15;3.50;;;;;;;13.25;100.00;98712.16;4953121;28;20115;-87
2023/03/31 10:26:03;;;;;;;8.77;3.20;;;;;;;12.91;100.00;98684.03;4950520;28;20150;-87
2023/03/31 10:28:43;;;;;;;8.30;2.50;;;;;;;12.65;100.00;98710.94;4948478;29;20093;-89
2023/03/31 10:31:10;;;;;;;13.23;2.80;;;;;;;12.38;100.00;98765.47;4943592;28;20059;-90
2023/03/31 10:33:43;;;;;;;11.50;2.78;;;;;;;11.64;100.00;98796.03;4944967;29;20492;-87
2023/03/31 10:36:27;;;;;;;11.05;3.67;;;;;;;11.08;100.00;98762.25;4972572;28;20051;-89
2023/03/31 10:38:57;;;;;;;3.58;0.90;;;;;;;10.46;100.00;98788.91;4943224;29;20054;-90
2023/03/31 10:41:28;;;;;;;4.50;1.50;;;;;;;9.90;100.00;98766.44;4962726;28;20153;-90
2023/03/31 10:44:02;;;;;;;4.30;1.42;;;;;;;9.68;100.00;98747.75;4953096;28;20043;-88
2023/03/31 10:46:52;;;;;;;9.57;3.08;;;;;;;9.59;100.00;98745.75;4968253;28;20047;-89
2023/03/31 10:49:27;;;;;;;6.72;1.67;;;;;;;9.52;100.00;98732.09;4961400;28;20067;-91
2023/03/31 10:51:57;;;;;;;7.88;2.33;;;;;;;9.44;100.00;98694.81;4970603;28;20755;-89
2023/03/31 10:54:26;;;;;;;8.55;2.15;;;;;;;9.67;100.00;98711.69;4959918;28;20043;-91
2023/03/31 10:57:57;;;;;;;8.25;1.73;;;;;;;9.77;100.00;98721.50;4958616;28;20360;-89
2023/03/31 11:00:58;;;;;;;6.65;1.70;;;;;;;9.71;100.00;98697.31;4965962;28;20062;-91
2023/03/31 11:03:42;;;;;;;7.50;2.30;;;;;;;9.88;100.00;98710.19;4978656;28;20055;-92
2023/03/31 11:07:06;;;;;;;5.13;1.40;;;;;;;9.79;100.00;98702.88;4965637;28;20050;-90
2023/03/31 11:09:53;;;;;;;8.27;1.52;;;;;;;9.87;100.00;98699.72;4953569;28;20069;-89
2023/03/31 11:13:17;;;;;;;7.15;1.30;;;;;;;10.04;100.00;98694.06;4973879;28;20039;-90
2023/03/31 11:16:17;;;;;;;3.88;1.10;;;;;;;10.27;100.00;98708.31;4933783;28;20043;-89
2023/03/31 11:19:02;;;;;;;5.30;1.10;;;;;;;10.43;100.00;98708.88;4974052;28;20042;-90
2023/03/31 11:21:39;;;;;;;3.03;0.80;;;;;;;10.39;100.00;98687.09;4972370;28;20043;-89
2023/03/31 11:24:30;;;;;;;4.53;1.30;;;;;;;10.62;100.00;98716.31;4982575;28;20106;-88
2023/03/31 11:27:37;;;;;;;4.82;0.98;;;;;;;10.65;100.00;98687.81;4964938;28;20050;-89
2023/03/31 11:30:41;;;;;;;1.42;0.80;;;;;;;10.79;100.00;98677.06;4974415;28;20050;-89
2023/03/31 11:33:52;;;;;;;5.22;1.20;;;;;;;11.36;100.00;98693.91;4980546;28;20019;-87
2023/03/31 11:36:35;;;;;;;3.33;1.40;;;;;;;11.74;100.00;98670.56;4972702;28;20065;-89
2023/03/31 11:39:13;;;;;;;5.35;1.17;;;;;;;12.11;100.00;98673.81;4972098;28;20377;-88
2023/03/31 11:41:56;;;;;;;6.47;1.90;;;;;;;12.52;100.00;98685.53;4979248;28;20057;-91
2023/03/31 11:44:39;;;;;;;5.53;1.20;;;;;;;12.52;100.00;98653.69;4965341;28;20150;-89
2023/03/31 11:47:17;;;;;;;7.20;1.80;;;;;;;12.53;100.00;98689.88;4976657;28;20484;-89
2023/03/31 11:49:52;;;;;;;7.18;1.55;;;;;;;12.21;100.00;98661.50;4966365;28;20048;-91
2023/03/31 11:52:28;;;;;;;6.05;1.65;;;;;;;12.29;100.00;98693.53;4976536;28;20046;-88
2023/03/31 11:55:24;;;;;;;9.35;1.80;;;;;;;12.07;100.00;98642.34;4965903;28;20047;-87
2023/03/31 11:57:57;;;;;;;8.02;1.67;;;;;;;12.29;100.00;98668.81;4971999;28;20643;-86
2023/03/31 12:00:41;;;;;;;9.80;2.03;;;;;;;12.34;100.00;98668.44;4980946;28;20055;-86
2023/03/31 12:03:22;;;;;;;9.98;2.05;;;;;;;12.42;100.00;98671.34;4987662;28;20042;-86
2023/03/31 12:06:18;;;;;;;10.68;2.40;;;;;;;12.50;100.00;98652.94;4977493;28;20554;-89
2023/03/31 12:09:29;;;;;;;11.93;2.08;;;;;;;12.53;100.00;98655.38;4969252;28;20047;-87
2023/03/31 12:12:17;;;;;;;5.75;1.50;;;;;;;12.56;100.00;98648.00;4959956;28;20031;-89